createdAt,value
2019-03-27T00:02:18.965Z,100742.29
2019-03-27T00:04:50.558Z,100739.98
2019-03-27T00:07:21.962Z,100733.45
2019-03-27T00:09:53.189Z,100732.30
2019-03-27T00:12:24.543Z,100733.09
2019-03-27T00:14:55.983Z,100737.14
2019-03-27T00:17:27.448Z,100730.45
2019-03-27T00:19:58.659Z,100732.27
2019-03-27T00:22:29.900Z,100728.57
2019-03-27T00:25:01.319Z,100728.78
2019-03-27T00:27:32.756Z,100726.55
2019-03-27T00:30:06.247Z,100724.50
2019-03-27T00:32:37.489Z,100723.55
2019-03-27T00:35:08.828Z,100728.69
2019-03-27T00:37:41.010Z,100732.09
2019-03-27T00:40:12.325Z,100729.01
2019-03-27T00:42:44.598Z,100728.84
2019-03-27T00:45:26.530Z,100726.14
2019-03-27T00:47:48.914Z,100722.95
2019-03-27T00:50:20.325Z,100730.27
2019-03-27T00:52:58.425Z,100723.42
2019-03-27T00:55:29.884Z,100719.41
2019-03-27T00:58:01.403Z,100712.95
2019-03-27T01:00:48.022Z,100710.59
2019-03-27T01:03:19.493Z,100713.67
2019-03-27T01:05:50.700Z,100713.67
2019-03-27T01:08:23.128Z,100716.19
2019-03-27T01:10:54.499Z,100706.62
2019-03-27T01:13:25.874Z,100715.00
2019-03-27T01:15:56.957Z,100721.74
2019-03-27T01:18:28.240Z,100719.29
2019-03-27T01:20:59.487Z,100719.67
2019-03-27T01:23:32.440Z,100720.62
2019-03-27T01:26:03.541Z,100717.83
2019-03-27T01:28:35.166Z,100710.46
2019-03-27T01:31:06.612Z,100714.61
2019-03-27T01:33:37.873Z,100711.52
2019-03-27T01:36:08.882Z,100714.06
2019-03-27T01:38:40.149Z,100715.40
2019-03-27T01:41:11.626Z,100715.05
2019-03-27T01:43:43.747Z,100716.67
2019-03-27T01:46:14.786Z,100710.08
2019-03-27T01:48:45.989Z,100711.86
2019-03-27T01:51:17.245Z,100715.16
2019-03-27T01:53:48.342Z,100713.02
2019-03-27T01:56:19.531Z,100716.78
2019-03-27T01:58:50.934Z,100715.64
2019-03-27T02:01:22.434Z,100714.23
2019-03-27T02:03:54.658Z,100717.84
2019-03-27T02:06:25.657Z,100724.78
2019-03-27T02:08:57.049Z,100725.25
2019-03-27T02:11:28.289Z,100728.27
2019-03-27T02:13:59.578Z,100729.76
2019-03-27T02:16:30.986Z,100730.26
2019-03-27T02:19:02.594Z,100727.50
2019-03-27T02:21:33.996Z,100728.84
2019-03-27T02:24:06.299Z,100726.38
2019-03-27T02:26:37.531Z,100720.37
2019-03-27T02:29:08.959Z,100716.20
2019-03-27T02:31:40.008Z,100717.34
2019-03-27T02:34:11.192Z,100720.26
2019-03-27T02:36:42.402Z,100726.47
2019-03-27T02:39:13.504Z,100729.17
2019-03-27T02:41:45.781Z,100732.20
2019-03-27T02:44:17.777Z,100733.10
2019-03-27T02:46:48.880Z,100730.59
2019-03-27T02:49:19.914Z,100731.53
2019-03-27T02:51:51.022Z,100732.50
2019-03-27T02:54:22.202Z,100734.46
2019-03-27T02:56:53.581Z,100734.82
2019-03-27T02:59:25.716Z,100733.05
2019-03-27T03:01:56.822Z,100737.56
2019-03-27T03:04:28.170Z,100729.38
2019-03-27T03:06:59.316Z,100732.09
2019-03-27T03:09:30.482Z,100735.39
2019-03-27T03:12:01.940Z,100728.32
2019-03-27T03:14:33.460Z,100735.30
2019-03-27T03:17:04.547Z,100737.47
2019-03-27T03:19:35.872Z,100741.03
2019-03-27T03:22:07.277Z,100735.89
2019-03-27T03:24:38.591Z,100729.86
2019-03-27T03:27:11.387Z,100740.98
2019-03-27T03:29:43.172Z,100736.06
2019-03-27T03:32:14.598Z,100743.88
2019-03-27T03:34:46.126Z,100746.69
2019-03-27T03:37:17.657Z,100742.66
2019-03-27T03:39:49.098Z,100742.00
2019-03-27T03:42:20.466Z,100742.37
2019-03-27T03:44:52.846Z,100748.95
2019-03-27T03:47:24.074Z,100746.63
2019-03-27T03:49:55.423Z,100755.92
2019-03-27T03:52:26.736Z,100756.11
2019-03-27T03:54:57.952Z,100752.52
2019-03-27T03:57:28.975Z,100753.63
2019-03-27T04:00:00.504Z,100754.84
2019-03-27T04:02:32.179Z,100762.64
2019-03-27T04:05:03.997Z,100760.19
2019-03-27T04:07:36.027Z,100758.94
2019-03-27T04:10:07.556Z,100766.93
2019-03-27T04:12:38.672Z,100765.53
2019-03-27T04:15:09.793Z,100766.92
2019-03-27T04:17:41.263Z,100768.89
2019-03-27T04:20:13.410Z,100767.27
2019-03-27T04:22:44.459Z,100765.19
2019-03-27T04:25:15.698Z,100763.47
2019-03-27T04:27:47.045Z,100771.34
2019-03-27T04:30:19.770Z,100771.52
2019-03-27T04:32:51.073Z,100763.38
2019-03-27T04:35:22.216Z,100767.75
2019-03-27T04:37:53.583Z,100766.17
2019-03-27T04:40:24.786Z,100763.25
2019-03-27T04:42:56.033Z,100761.81
2019-03-27T04:45:29.289Z,100765.50
2019-03-27T04:48:08.655Z,100762.30
2019-03-27T04:50:40.039Z,100759.75
2019-03-27T04:53:11.113Z,100755.52
2019-03-27T04:55:42.353Z,100759.80
2019-03-27T04:58:13.877Z,100761.50
2019-03-27T05:00:45.171Z,100763.54
2019-03-27T05:03:16.598Z,100762.63
2019-03-27T05:05:48.653Z,100767.41
2019-03-27T05:08:19.706Z,100766.24
2019-03-27T05:10:50.893Z,100767.12
2019-03-27T05:13:22.037Z,100768.48
2019-03-27T05:15:53.183Z,100772.80
2019-03-27T05:18:24.362Z,100769.48
2019-03-27T05:20:55.503Z,100764.70
2019-03-27T05:23:26.700Z,100769.27
2019-03-27T05:25:57.960Z,100766.84
2019-03-27T05:28:30.114Z,100768.86
2019-03-27T05:31:01.509Z,100769.44
2019-03-27T05:33:32.957Z,100772.50
2019-03-27T05:36:05.032Z,100763.88
2019-03-27T05:38:36.151Z,100764.25
2019-03-27T05:41:07.305Z,100757.00
2019-03-27T05:43:38.529Z,100755.68
2019-03-27T05:46:14.468Z,100757.31
2019-03-27T05:48:46.472Z,100764.19
2019-03-27T05:51:19.898Z,100765.94
2019-03-27T05:53:53.023Z,100763.17
2019-03-27T05:56:24.156Z,100765.11
2019-03-27T05:58:55.631Z,100760.76
2019-03-27T06:01:26.887Z,100758.34
2019-03-27T06:03:58.133Z,100760.86
2019-03-27T06:06:29.481Z,100751.20
2019-03-27T06:09:06.386Z,100756.40
2019-03-27T06:11:37.646Z,100754.44
2019-03-27T06:14:09.476Z,100757.32
2019-03-27T06:16:40.757Z,100746.30
2019-03-27T06:19:12.664Z,100750.20
2019-03-27T06:21:45.767Z,100743.64
2019-03-27T06:24:17.430Z,100745.08
2019-03-27T06:26:48.811Z,100744.84
2019-03-27T06:29:19.976Z,100751.78
2019-03-27T06:31:51.505Z,100756.88
2019-03-27T06:34:22.570Z,100756.19
2019-03-27T06:36:54.085Z,100750.16
2019-03-27T06:39:25.311Z,100755.96
2019-03-27T06:41:59.491Z,100744.27
2019-03-27T06:44:32.207Z,100745.13
2019-03-27T06:47:04.483Z,100752.94
2019-03-27T06:49:36.203Z,100751.38
2019-03-27T06:52:09.186Z,100743.75
2019-03-27T06:54:42.401Z,100749.48
2019-03-27T06:57:14.575Z,100746.42
2019-03-27T06:59:45.808Z,100742.67
2019-03-27T07:02:16.918Z,100746.98
2019-03-27T07:04:48.138Z,100753.78
2019-03-27T07:07:19.346Z,100753.57
2019-03-27T07:09:50.934Z,100753.23
2019-03-27T07:12:22.169Z,100749.18
2019-03-27T07:14:53.263Z,100755.57
2019-03-27T07:17:25.045Z,100760.41
2019-03-27T07:19:56.390Z,100757.80
2019-03-27T07:22:37.974Z,100768.33
2019-03-27T07:25:09.353Z,100762.44
2019-03-27T07:27:40.581Z,100760.91
2019-03-27T07:30:11.575Z,100768.33
2019-03-27T07:32:43.823Z,100767.50
2019-03-27T07:35:15.343Z,100769.08
2019-03-27T07:37:46.513Z,100761.50
2019-03-27T07:40:18.278Z,100767.55
2019-03-27T07:42:51.029Z,100768.22
2019-03-27T07:45:22.105Z,100768.41
2019-03-27T07:47:53.341Z,100763.53
2019-03-27T07:50:24.489Z,100778.46
2019-03-27T07:52:59.415Z,100777.36
2019-03-27T07:55:34.943Z,100772.25
2019-03-27T07:58:07.127Z,100772.22
2019-03-27T08:00:40.137Z,100764.38
2019-03-27T08:03:11.529Z,100757.44
2019-03-27T08:05:43.948Z,100757.62
2019-03-27T08:08:15.189Z,100750.25
2019-03-27T08:10:46.760Z,100752.30
2019-03-27T08:13:17.842Z,100749.22
2019-03-27T08:15:49.952Z,100750.20
2019-03-27T08:18:28.023Z,100744.92
2019-03-27T08:20:59.406Z,100752.70
2019-03-27T08:23:30.927Z,100757.16
2019-03-27T08:26:01.927Z,100759.14
2019-03-27T08:28:33.527Z,100748.16
2019-03-27T08:31:04.958Z,100752.34
2019-03-27T08:33:36.640Z,100755.66
2019-03-27T08:36:08.784Z,100757.72
2019-03-27T08:38:41.889Z,100758.77
2019-03-27T08:41:13.097Z,100754.99
2019-03-27T08:43:46.906Z,100764.08
2019-03-27T08:46:24.346Z,100744.12
2019-03-27T08:48:56.755Z,100758.81
2019-03-27T08:51:28.153Z,100758.12
2019-03-27T08:53:59.539Z,100767.60
2019-03-27T08:56:34.184Z,100751.09
2019-03-27T08:59:06.204Z,100747.92
2019-03-27T09:01:37.541Z,100751.44
2019-03-27T09:04:08.948Z,100752.88
2019-03-27T09:06:40.980Z,100750.33
2019-03-27T09:09:12.996Z,100753.28
2019-03-27T09:11:44.061Z,100770.25
2019-03-27T09:14:16.208Z,100767.83
2019-03-27T09:16:47.651Z,100768.71
2019-03-27T09:19:19.344Z,100767.33
2019-03-27T09:21:50.429Z,100770.90
2019-03-27T09:24:58.093Z,100767.05
2019-03-27T09:27:55.677Z,100770.44
2019-03-27T09:30:38.402Z,100772.59
2019-03-27T09:33:36.563Z,100764.89
2019-03-27T09:36:08.241Z,100759.89
2019-03-27T09:38:39.441Z,100762.61
2019-03-27T09:41:23.217Z,100755.94
2019-03-27T09:43:54.818Z,100760.23
2019-03-27T09:46:28.268Z,100760.08
2019-03-27T09:49:00.835Z,100752.25
2019-03-27T09:51:32.333Z,100757.04
2019-03-27T09:54:03.872Z,100759.00
2019-03-27T09:56:35.455Z,100751.05
2019-03-27T09:59:06.745Z,100751.48
2019-03-27T10:01:38.178Z,100749.78
2019-03-27T10:04:09.270Z,100754.71
2019-03-27T10:06:40.650Z,100752.50
2019-03-27T10:09:15.611Z,100749.45
2019-03-27T10:11:52.340Z,100744.82
2019-03-27T10:14:23.929Z,100746.98
2019-03-27T10:16:56.218Z,100742.88
2019-03-27T10:19:28.201Z,100742.84
2019-03-27T10:22:00.588Z,100741.30
2019-03-27T10:24:33.777Z,100745.75
2019-03-27T10:27:10.377Z,100744.47
2019-03-27T10:29:41.862Z,100736.33
2019-03-27T10:32:13.275Z,100736.50
2019-03-27T10:34:46.009Z,100728.92
2019-03-27T10:37:17.557Z,100736.10
2019-03-27T10:39:50.132Z,100729.02
2019-03-27T10:42:23.853Z,100731.08
2019-03-27T10:44:56.849Z,100726.52
2019-03-27T10:47:32.492Z,100729.67
2019-03-27T10:50:17.045Z,100725.83
2019-03-27T10:52:41.710Z,100716.80
2019-03-27T10:55:13.260Z,100725.28
2019-03-27T10:57:44.460Z,100720.11
2019-03-27T11:00:19.957Z,100716.62
2019-03-27T11:05:50.392Z,100712.06
2019-03-27T11:08:28.887Z,100704.73
2019-03-27T11:11:00.649Z,100709.45
2019-03-27T11:13:34.426Z,100720.66
2019-03-27T11:16:05.600Z,100710.60
2019-03-27T11:18:38.806Z,100712.05
2019-03-27T11:21:10.311Z,100706.88
2019-03-27T11:23:42.591Z,100711.94
2019-03-27T11:26:14.072Z,100704.85
2019-03-27T11:28:45.251Z,100712.62
2019-03-27T11:31:17.611Z,100707.30
2019-03-27T11:33:51.493Z,100707.30
2019-03-27T11:36:22.638Z,100703.09
2019-03-27T11:38:53.942Z,100705.50
2019-03-27T11:41:25.338Z,100698.91
2019-03-27T11:43:57.945Z,100699.52
2019-03-27T11:46:32.072Z,100688.73
2019-03-27T11:49:02.013Z,100701.22
2019-03-27T11:51:34.457Z,100684.31
2019-03-27T11:54:08.479Z,100700.16
2019-03-27T11:56:39.013Z,100701.70
2019-03-27T12:01:52.313Z,100702.14
2019-03-27T12:04:24.945Z,100708.58
2019-03-27T12:06:56.910Z,100703.23
2019-03-27T12:09:28.085Z,100709.62
2019-03-27T12:12:02.828Z,100705.03
2019-03-27T12:14:39.300Z,100720.33
2019-03-27T12:17:15.126Z,100723.39
2019-03-27T12:19:46.208Z,100711.63
2019-03-27T12:22:21.401Z,100720.06
2019-03-27T12:25:00.495Z,100725.63
2019-03-27T12:27:38.486Z,100730.44
2019-03-27T12:30:09.946Z,100732.66
2019-03-27T12:32:43.152Z,100749.27
2019-03-27T12:35:14.676Z,100753.95
2019-03-27T12:37:46.580Z,100753.42
2019-03-27T12:40:18.048Z,100776.20
2019-03-27T12:42:49.361Z,100769.70
2019-03-27T12:45:20.635Z,100778.97
2019-03-27T12:47:53.970Z,100781.10
2019-03-27T12:50:25.540Z,100778.53
2019-03-27T12:52:58.961Z,100776.12
2019-03-27T12:55:30.086Z,100781.98
2019-03-27T12:58:02.148Z,100770.66
2019-03-27T13:00:33.322Z,100778.80
2019-03-27T13:03:05.591Z,100792.69
2019-03-27T13:05:36.855Z,100792.14
2019-03-27T13:08:08.098Z,100801.39
2019-03-27T13:10:39.172Z,100802.48
2019-03-27T13:13:10.367Z,100809.70
2019-03-27T13:15:50.202Z,100811.72
2019-03-27T13:18:22.842Z,100810.28
2019-03-27T13:20:54.721Z,100812.77
2019-03-27T13:23:26.176Z,100814.44
2019-03-27T13:25:57.650Z,100811.95
2019-03-27T13:28:29.063Z,100808.19
2019-03-27T13:31:00.409Z,100818.44
2019-03-27T13:33:33.100Z,100815.56
2019-03-27T13:36:05.037Z,100817.39
2019-03-27T13:38:37.700Z,100815.48
2019-03-27T13:41:09.232Z,100812.92
2019-03-27T13:43:41.871Z,100807.96
2019-03-27T13:46:18.244Z,100819.69
2019-03-27T13:48:49.976Z,100817.04
2019-03-27T13:51:22.443Z,100819.06
2019-03-27T13:53:57.155Z,100830.48
2019-03-27T13:56:28.349Z,100821.44
2019-03-27T13:58:59.806Z,100823.13
2019-03-27T14:01:31.453Z,100833.52
2019-03-27T14:04:02.810Z,100839.48
2019-03-27T14:06:35.222Z,100831.25
2019-03-27T14:09:07.703Z,100831.84
2019-03-27T14:11:44.859Z,100827.81
2019-03-27T14:14:17.759Z,100837.66
2019-03-27T14:16:57.309Z,100837.08
2019-03-27T14:19:28.812Z,100842.76
2019-03-27T14:22:00.031Z,100842.20
2019-03-27T14:24:36.563Z,100842.41
2019-03-27T14:27:07.821Z,100839.58
2019-03-27T14:29:40.196Z,100843.16
2019-03-27T14:32:13.335Z,100848.95
2019-03-27T14:34:44.530Z,100847.71
2019-03-27T14:37:16.581Z,100854.45
2019-03-27T14:39:53.764Z,100862.12
2019-03-27T14:42:26.696Z,100860.53
2019-03-27T14:44:58.016Z,100858.09
2019-03-27T14:47:30.783Z,100870.89
2019-03-27T14:50:02.133Z,100869.22
2019-03-27T14:52:33.543Z,100863.84
2019-03-27T14:55:07.459Z,100874.59
2019-03-27T14:57:44.611Z,100880.23
2019-03-27T15:00:16.809Z,100883.05
2019-03-27T15:02:49.197Z,100892.36
2019-03-27T15:05:21.447Z,100886.58
2019-03-27T15:07:57.543Z,100895.09
2019-03-27T15:10:28.968Z,100891.86
2019-03-27T15:13:00.263Z,100889.65
2019-03-27T15:15:31.806Z,100893.20
2019-03-27T15:18:04.212Z,100896.71
2019-03-27T15:20:35.847Z,100901.86
2019-03-27T15:23:07.417Z,100898.41
2019-03-27T15:25:39.865Z,100896.29
2019-03-27T15:28:12.784Z,100895.61
2019-03-27T15:30:48.326Z,100900.81
2019-03-27T15:33:23.058Z,100902.06
2019-03-27T15:35:54.944Z,100902.04
2019-03-27T15:38:26.495Z,100903.16
2019-03-27T15:41:00.222Z,100907.86
2019-03-27T15:43:31.745Z,100914.21
2019-03-27T15:46:03.052Z,100913.12
2019-03-27T15:48:35.311Z,100915.39
2019-03-27T15:51:08.947Z,100917.10
2019-03-27T15:53:42.588Z,100909.38
2019-03-27T15:56:15.141Z,100917.75
2019-03-27T15:58:46.466Z,100924.78
2019-03-27T16:01:19.348Z,100925.20
2019-03-27T16:03:51.577Z,100924.41
2019-03-27T16:06:25.867Z,100929.20
2019-03-27T16:08:59.446Z,100922.13
2019-03-27T16:11:33.284Z,100938.37
2019-03-27T16:14:05.818Z,100937.97
2019-03-27T16:16:37.402Z,100936.19
2019-03-27T16:19:11.003Z,100938.27
2019-03-27T16:21:42.520Z,100915.72
2019-03-27T16:24:13.887Z,100945.44
2019-03-27T16:26:58.440Z,100943.92
2019-03-27T16:29:19.455Z,100950.34
2019-03-27T16:31:50.765Z,100952.34
2019-03-27T16:34:25.133Z,100955.83
2019-03-27T16:36:55.082Z,100961.08
2019-03-27T16:39:28.292Z,100966.19
2019-03-27T16:41:59.623Z,100976.16
2019-03-27T16:44:31.068Z,100976.70
2019-03-27T16:47:03.142Z,100982.66
2019-03-27T16:49:34.437Z,100979.94
2019-03-27T16:52:06.023Z,100986.75
2019-03-27T16:54:37.445Z,100986.67
2019-03-27T16:57:28.935Z,100989.59
2019-03-27T17:00:00.372Z,100987.62
2019-03-27T17:02:31.913Z,100992.23
2019-03-27T17:05:05.071Z,100994.34
2019-03-27T17:07:37.382Z,100998.34
2019-03-27T17:10:08.543Z,101001.98
2019-03-27T17:12:39.876Z,101003.30
2019-03-27T17:15:11.224Z,101005.00
2019-03-27T17:17:43.692Z,100999.11
2019-03-27T17:20:15.940Z,101004.61
2019-03-27T17:22:47.743Z,101003.69
2019-03-27T17:25:25.697Z,101006.32
2019-03-27T17:27:58.983Z,101018.00
2019-03-27T17:30:31.962Z,101014.36
2019-03-27T17:33:03.737Z,101018.52
2019-03-27T17:35:35.156Z,101019.98
2019-03-27T17:38:06.597Z,101016.28
2019-03-27T17:40:38.137Z,101015.27
2019-03-27T17:43:09.357Z,101018.84
2019-03-27T17:45:40.544Z,101016.73
2019-03-27T17:48:12.244Z,101020.22
2019-03-27T17:50:44.504Z,101016.89
2019-03-27T17:53:30.732Z,101017.29
2019-03-27T17:55:52.761Z,101021.78
2019-03-27T17:58:24.942Z,101016.13
2019-03-27T18:00:57.374Z,101018.36
2019-03-27T18:03:29.411Z,101022.00
2019-03-27T18:06:00.381Z,101018.20
2019-03-27T18:08:33.783Z,101020.47
2019-03-27T18:11:08.146Z,101023.46
2019-03-27T18:13:38.486Z,101021.99
2019-03-27T18:16:10.871Z,101024.63
2019-03-27T18:18:42.343Z,101015.42
2019-03-27T18:21:14.130Z,101023.80
2019-03-27T18:23:46.806Z,101016.73
2019-03-27T18:26:18.764Z,101016.73
2019-03-27T18:28:50.036Z,101022.55
2019-03-27T18:31:21.212Z,101025.27
2019-03-27T18:33:52.501Z,101031.44
2019-03-27T18:36:24.823Z,101023.64
2019-03-27T18:38:58.001Z,101022.70
2019-03-27T18:41:29.032Z,101024.31
2019-03-27T18:44:03.195Z,101023.00
2019-03-27T18:46:34.510Z,101018.84
2019-03-27T18:49:15.647Z,101027.04
2019-03-27T18:51:46.893Z,101026.24
2019-03-27T18:54:19.121Z,101030.34
2019-03-27T18:56:51.246Z,101037.86
2019-03-27T18:59:31.396Z,101033.37
2019-03-27T19:02:08.018Z,101037.00
2019-03-27T19:04:40.276Z,101039.78
2019-03-27T19:07:13.054Z,101031.28
2019-03-27T19:09:45.239Z,101038.78
2019-03-27T19:12:18.350Z,101041.25
2019-03-27T19:14:50.279Z,101044.98
2019-03-27T19:17:22.475Z,101044.34
2019-03-27T19:19:53.866Z,101042.56
2019-03-27T19:22:25.180Z,101046.75
2019-03-27T19:24:56.456Z,101050.91
2019-03-27T19:27:28.431Z,101048.44
2019-03-27T19:29:59.852Z,101049.08
2019-03-27T19:32:34.353Z,101051.40
2019-03-27T19:35:05.951Z,101050.94
2019-03-27T19:37:41.051Z,101047.00
2019-03-27T19:40:12.235Z,101053.63
2019-03-27T19:42:44.887Z,101056.95
2019-03-27T19:45:16.449Z,101055.34
2019-03-27T19:47:47.896Z,101062.22
2019-03-27T19:50:19.486Z,101071.97
2019-03-27T19:52:50.536Z,101073.83
2019-03-27T19:55:21.796Z,101077.69
2019-03-27T19:57:53.035Z,101079.23
2019-03-27T20:00:25.430Z,101080.31
2019-03-27T20:02:56.643Z,101086.98
2019-03-27T20:05:29.796Z,101093.25
2019-03-27T20:08:01.132Z,101081.72
2019-03-27T20:10:37.283Z,101083.89
2019-03-27T20:13:18.568Z,101099.33
2019-03-27T20:15:50.137Z,101094.92
2019-03-27T20:18:21.314Z,101096.39
2019-03-27T20:20:52.602Z,101104.28
2019-03-27T20:23:23.754Z,101105.45
2019-03-27T20:25:54.989Z,101110.80
2019-03-27T20:28:26.035Z,101111.66
2019-03-27T20:30:57.282Z,101112.97
2019-03-27T20:33:28.469Z,101110.88
2019-03-27T20:36:02.960Z,101114.44
2019-03-27T20:38:34.262Z,101115.29
2019-03-27T20:41:05.357Z,101119.45
2019-03-27T20:43:39.323Z,101118.98
2019-03-27T20:46:24.004Z,101123.09
2019-03-27T20:48:43.312Z,101127.28
2019-03-27T20:51:14.537Z,101128.81
2019-03-27T20:53:45.691Z,101129.12
2019-03-27T20:56:16.934Z,101140.44
2019-03-27T20:58:48.151Z,101143.98
2019-03-27T21:01:23.530Z,101142.27
2019-03-27T21:03:54.747Z,101139.73
2019-03-27T21:06:27.863Z,101147.41
2019-03-27T21:09:01.369Z,101144.53
2019-03-27T21:11:34.757Z,101155.97
2019-03-27T21:14:07.816Z,101156.37
2019-03-27T21:16:39.027Z,101163.65
2019-03-27T21:19:11.541Z,101161.41
2019-03-27T21:21:42.993Z,101164.25
2019-03-27T21:24:14.811Z,101156.45
2019-03-27T21:26:46.881Z,101162.87
2019-03-27T21:29:19.729Z,101161.78
2019-03-27T21:31:51.194Z,101161.88
2019-03-27T21:34:22.390Z,101168.97
2019-03-27T21:36:54.283Z,101168.77
2019-03-27T21:39:26.341Z,101169.52
2019-03-27T21:41:57.839Z,101168.30
2019-03-27T21:44:29.426Z,101175.34
2019-03-27T21:47:00.709Z,101172.77
2019-03-27T21:49:33.216Z,101177.17
2019-03-27T21:52:04.504Z,101188.09
2019-03-27T21:54:36.851Z,101185.06
2019-03-27T21:57:10.019Z,101192.20
2019-03-27T21:59:41.171Z,101188.64
2019-03-27T22:02:13.397Z,101195.28
2019-03-27T22:04:44.944Z,101192.66
2019-03-27T22:07:19.378Z,101201.61
2019-03-27T22:09:50.959Z,101200.69
2019-03-27T22:12:23.509Z,101204.33
2019-03-27T22:14:54.727Z,101198.16
2019-03-27T22:17:26.239Z,101205.03
2019-03-27T22:19:57.942Z,101204.23
2019-03-27T22:22:29.291Z,101207.97
2019-03-27T22:25:05.385Z,101205.19
2019-03-27T22:27:36.561Z,101216.08
2019-03-27T22:30:08.058Z,101226.53
2019-03-27T22:32:42.069Z,101229.52
2019-03-27T22:35:13.248Z,101220.41
2019-03-27T22:37:44.687Z,101225.42
2019-03-27T22:40:16.075Z,101233.09
2019-03-27T22:42:47.472Z,101228.34
2019-03-27T22:45:21.637Z,101228.58
2019-03-27T22:47:52.758Z,101237.37
2019-03-27T22:50:24.070Z,101238.93
2019-03-27T22:52:55.213Z,101239.75
2019-03-27T22:55:26.627Z,101242.18
2019-03-27T22:57:57.826Z,101243.95
2019-03-27T23:00:45.867Z,101247.27
2019-03-27T23:03:18.973Z,101246.16
2019-03-27T23:05:50.265Z,101253.73
2019-03-27T23:08:21.543Z,101253.73
2019-03-27T23:10:52.827Z,101247.11
2019-03-27T23:13:25.994Z,101247.62
2019-03-27T23:15:57.197Z,101252.42
2019-03-27T23:18:28.441Z,101258.59
2019-03-27T23:20:59.573Z,101256.96
2019-03-27T23:23:30.720Z,101251.70
2019-03-27T23:26:03.403Z,101256.96
2019-03-27T23:28:34.841Z,101260.87
2019-03-27T23:31:06.003Z,101260.70
2019-03-27T23:33:37.138Z,101268.13
2019-03-27T23:36:08.406Z,101269.16
2019-03-27T23:38:39.631Z,101276.63
2019-03-27T23:41:10.838Z,101280.57
2019-03-27T23:43:41.940Z,101276.53
2019-03-27T23:46:13.145Z,101281.34
2019-03-27T23:48:45.512Z,101280.02
2019-03-27T23:51:16.782Z,101277.13
2019-03-27T23:53:47.876Z,101284.62
2019-03-27T23:56:18.842Z,101286.16
2019-03-27T23:58:49.919Z,101280.59
